createdAt,value
2023-05-08T00:00:11.016Z,2147.00
2023-05-08T00:01:10.988Z,2123.00
2023-05-08T00:02:11.044Z,2039.00
2023-05-08T00:03:11.178Z,2042.00
2023-05-08T00:04:11.206Z,2062.00
2023-05-08T00:05:11.177Z,2055.00
2023-05-08T00:06:11.202Z,2052.00
2023-05-08T00:07:11.304Z,2048.00
2023-05-08T00:08:11.329Z,2015.00
2023-05-08T00:09:11.388Z,2025.00
2023-05-08T00:10:11.544Z,2017.00
2023-05-08T00:11:11.492Z,2030.00
2023-05-08T00:12:11.607Z,2034.00
2023-05-08T00:13:11.633Z,2047.00
2023-05-08T00:14:11.698Z,2078.00
2023-05-08T00:15:11.715Z,2089.00
2023-05-08T00:16:11.978Z,2110.00
2023-05-08T00:17:11.810Z,2169.00
2023-05-08T00:18:11.857Z,2193.00
2023-05-08T00:19:11.890Z,2231.00
2023-05-08T00:20:12.301Z,2216.00
2023-05-08T00:21:12.003Z,2253.00
2023-05-08T00:22:12.049Z,2226.00
2023-05-08T00:23:12.083Z,2227.00
2023-05-08T00:24:12.193Z,2203.00
2023-05-08T00:25:12.210Z,2172.00
2023-05-08T00:26:12.284Z,2185.00
2023-05-08T00:27:12.317Z,2188.00
2023-05-08T00:28:12.356Z,2210.00
2023-05-08T00:29:12.416Z,2247.00
2023-05-08T00:30:12.565Z,2253.00
2023-05-08T00:31:12.528Z,2284.00
2023-05-08T00:32:12.653Z,2314.00
2023-05-08T00:33:12.672Z,2336.00
2023-05-08T00:34:12.691Z,2334.00
2023-05-08T00:35:12.755Z,2358.00
2023-05-08T00:36:12.772Z,2383.00
2023-05-08T00:37:12.817Z,2374.00
2023-05-08T00:38:12.975Z,2430.00
2023-05-08T00:39:12.917Z,2438.00
2023-05-08T00:40:13.143Z,2421.00
2023-05-08T00:41:13.023Z,2431.00
2023-05-08T00:42:13.070Z,2436.00
2023-05-08T00:43:13.120Z,2441.00
2023-05-08T00:44:13.160Z,2440.00
2023-05-08T00:45:13.192Z,2471.00
2023-05-08T00:46:13.367Z,2462.00
2023-05-08T00:47:13.310Z,2496.00
2023-05-08T00:48:13.352Z,2478.00
2023-05-08T00:49:13.389Z,2486.00
2023-05-08T00:50:13.778Z,2487.00
2023-05-08T00:51:13.450Z,2485.00
2023-05-08T00:52:13.517Z,2478.00
2023-05-08T00:53:13.564Z,2484.00
2023-05-08T00:54:13.674Z,2509.00
2023-05-08T00:55:13.671Z,2508.00
2023-05-08T00:56:13.724Z,2547.00
2023-05-08T00:57:13.713Z,2531.00
2023-05-08T00:58:13.778Z,2510.00
2023-05-08T00:59:13.808Z,2518.00
2023-05-08T01:00:14.029Z,2483.00
2023-05-08T01:01:14.538Z,2480.00
2023-05-08T01:02:14.051Z,2477.00
2023-05-08T01:03:14.086Z,2443.00
2023-05-08T01:04:14.033Z,2445.00
2023-05-08T01:05:14.118Z,2454.00
2023-05-08T01:06:14.151Z,2457.00
2023-05-08T01:07:14.166Z,2468.00
2023-05-08T01:08:14.228Z,2479.00
2023-05-08T01:09:14.277Z,2477.00
2023-05-08T01:10:14.663Z,2474.00
2023-05-08T01:11:14.417Z,2469.00
2023-05-08T01:12:14.424Z,2530.00
2023-05-08T01:13:14.601Z,2556.00
2023-05-08T01:14:14.519Z,2577.00
2023-05-08T01:15:14.566Z,2578.00
2023-05-08T01:16:14.649Z,2557.00
2023-05-08T01:17:14.609Z,2565.00
2023-05-08T01:18:15.588Z,2580.00
2023-05-08T01:19:14.722Z,2604.00
2023-05-08T01:20:14.933Z,2604.00
2023-05-08T01:21:14.778Z,2632.00
2023-05-08T01:22:14.800Z,2635.00
2023-05-08T01:23:14.844Z,2644.00
2023-05-08T01:24:15.554Z,2642.00
2023-05-08T01:25:14.952Z,2611.00
2023-05-08T01:26:14.994Z,2628.00
2023-05-08T01:27:15.516Z,2627.00
2023-05-08T01:28:15.077Z,2632.00
2023-05-08T01:29:15.117Z,2615.00
2023-05-08T01:30:15.153Z,2601.00
2023-05-08T01:31:15.182Z,2593.00
2023-05-08T01:32:15.203Z,2591.00
2023-05-08T01:33:15.377Z,2561.00
2023-05-08T01:34:16.047Z,2548.00
2023-05-08T01:35:15.314Z,2568.00
2023-05-08T01:36:15.374Z,2578.00
2023-05-08T01:37:15.407Z,2569.00
2023-05-08T01:38:15.485Z,2562.00
2023-05-08T01:39:16.005Z,2558.00
2023-05-08T01:40:16.290Z,2555.00
2023-05-08T01:41:15.674Z,2539.00
2023-05-08T01:42:15.654Z,2567.00
2023-05-08T01:43:15.668Z,2564.00
2023-05-08T01:44:15.742Z,2563.00
2023-05-08T01:45:15.745Z,2558.00
2023-05-08T01:46:15.837Z,2560.00
2023-05-08T01:47:15.836Z,2548.00
2023-05-08T01:48:15.871Z,2552.00
2023-05-08T01:49:15.905Z,2571.00
2023-05-08T01:50:16.132Z,2582.00
2023-05-08T01:51:15.982Z,2607.00
2023-05-08T01:52:16.045Z,2632.00
2023-05-08T01:53:16.067Z,2651.00
2023-05-08T01:54:16.150Z,2648.00
2023-05-08T01:55:16.187Z,2644.00
2023-05-08T01:56:16.179Z,2648.00
2023-05-08T01:57:16.234Z,2658.00
2023-05-08T01:58:16.268Z,2679.00
2023-05-08T01:59:16.321Z,2718.00
2023-05-08T02:00:16.388Z,2713.00
2023-05-08T02:01:16.510Z,2702.00
2023-05-08T02:02:16.456Z,2711.00
2023-05-08T02:03:16.530Z,2687.00
2023-05-08T02:04:16.604Z,2696.00
2023-05-08T02:05:16.542Z,2711.00
2023-05-08T02:06:16.638Z,2710.00
2023-05-08T02:07:16.612Z,2696.00
2023-05-08T02:08:16.664Z,2712.00
2023-05-08T02:09:16.716Z,2707.00
2023-05-08T02:10:16.784Z,2705.00
2023-05-08T02:11:16.840Z,2699.00
2023-05-08T02:12:16.835Z,2708.00
2023-05-08T02:13:17.629Z,2709.00
2023-05-08T02:14:16.920Z,2700.00
2023-05-08T02:15:16.944Z,2692.00
2023-05-08T02:16:17.043Z,2700.00
2023-05-08T02:17:17.023Z,2700.00
2023-05-08T02:18:17.065Z,2688.00
2023-05-08T02:19:18.054Z,2681.00
2023-05-08T02:20:17.183Z,2693.00
2023-05-08T02:21:17.180Z,2678.00
2023-05-08T02:22:17.232Z,2661.00
2023-05-08T02:23:17.294Z,2664.00
2023-05-08T02:24:17.323Z,2656.00
2023-05-08T02:25:17.377Z,2673.00
2023-05-08T02:26:17.428Z,2666.00
2023-05-08T02:27:17.452Z,2673.00
2023-05-08T02:28:17.460Z,2669.00
2023-05-08T02:29:17.509Z,2682.00
2023-05-08T02:30:17.567Z,2640.00
2023-05-08T02:31:17.611Z,2623.00
2023-05-08T02:32:17.745Z,2603.00
2023-05-08T02:33:17.733Z,2596.00
2023-05-08T02:34:17.713Z,2577.00
2023-05-08T02:35:17.826Z,2561.00
2023-05-08T02:36:17.802Z,2546.00
2023-05-08T02:37:17.848Z,2531.00
2023-05-08T02:38:17.925Z,2532.00
2023-05-08T02:39:17.939Z,2523.00
2023-05-08T02:40:17.981Z,2515.00
2023-05-08T02:41:18.054Z,2534.00
2023-05-08T02:42:18.101Z,2548.00
2023-05-08T02:43:18.162Z,2557.00
2023-05-08T02:44:18.217Z,2583.00
2023-05-08T02:45:18.286Z,2594.00
2023-05-08T02:46:18.317Z,2602.00
2023-05-08T02:47:18.348Z,2588.00
2023-05-08T02:48:18.375Z,2583.00
2023-05-08T02:49:18.453Z,2574.00
2023-05-08T02:50:18.520Z,2586.00
2023-05-08T02:51:18.515Z,2591.00
2023-05-08T02:52:18.634Z,2594.00
2023-05-08T02:53:18.594Z,2595.00
2023-05-08T02:54:18.641Z,2614.00
2023-05-08T02:55:18.770Z,2610.00
2023-05-08T02:56:18.771Z,2591.00
2023-05-08T02:57:18.797Z,2569.00
2023-05-08T02:58:18.861Z,2558.00
2023-05-08T02:59:18.881Z,2558.00
2023-05-08T03:00:18.914Z,2543.00
2023-05-08T03:01:18.979Z,2534.00
2023-05-08T03:02:19.010Z,2542.00
2023-05-08T03:03:19.252Z,2541.00
2023-05-08T03:04:19.110Z,2511.00
2023-05-08T03:05:19.187Z,2504.00
2023-05-08T03:06:19.213Z,2525.00
2023-05-08T03:07:19.272Z,2525.00
2023-05-08T03:08:19.346Z,2528.00
2023-05-08T03:09:19.339Z,2513.00
2023-05-08T03:10:19.402Z,2501.00
2023-05-08T03:11:19.475Z,2500.00
2023-05-08T03:12:19.461Z,2514.00
2023-05-08T03:13:19.537Z,2520.00
2023-05-08T03:14:19.584Z,2523.00
2023-05-08T03:15:19.605Z,2533.00
2023-05-08T03:16:19.727Z,2556.00
2023-05-08T03:17:19.782Z,2567.00
2023-05-08T03:18:19.781Z,2562.00
2023-05-08T03:19:21.365Z,2567.00
2023-05-08T03:20:19.818Z,2561.00
2023-05-08T03:21:19.789Z,2573.00
2023-05-08T03:22:19.805Z,2580.00
2023-05-08T03:23:19.809Z,2597.00
2023-05-08T03:24:19.788Z,2596.00
2023-05-08T03:25:19.783Z,2582.00
2023-05-08T03:26:19.740Z,2607.00
2023-05-08T03:27:19.749Z,2599.00
2023-05-08T03:28:19.791Z,2580.00
2023-05-08T03:29:19.730Z,2579.00
2023-05-08T03:30:19.712Z,2554.00
2023-05-08T03:31:19.763Z,2548.00
2023-05-08T03:32:19.709Z,2544.00
2023-05-08T03:33:19.713Z,2528.00
2023-05-08T03:34:19.699Z,2524.00
2023-05-08T03:35:19.758Z,2516.00
2023-05-08T03:36:19.753Z,2534.00
2023-05-08T03:37:19.682Z,2537.00
2023-05-08T03:38:19.664Z,2551.00
2023-05-08T03:39:20.568Z,2575.00
2023-05-08T03:40:19.715Z,2575.00
2023-05-08T03:41:19.673Z,2570.00
2023-05-08T03:42:19.661Z,2586.00
2023-05-08T03:43:19.676Z,2575.00
2023-05-08T03:44:19.621Z,2584.00
2023-05-08T03:45:19.646Z,2581.00
2023-05-08T03:46:19.698Z,2566.00
2023-05-08T03:47:19.607Z,2582.00
2023-05-08T03:48:19.663Z,2557.00
2023-05-08T03:49:19.687Z,2560.00
2023-05-08T03:50:19.693Z,2578.00
2023-05-08T03:51:19.571Z,2600.00
2023-05-08T03:52:19.559Z,2594.00
2023-05-08T03:53:19.597Z,2607.00
2023-05-08T03:54:19.564Z,2610.00
2023-05-08T03:55:19.571Z,2602.00
2023-05-08T03:56:19.666Z,2603.00
2023-05-08T03:57:19.553Z,2612.00
2023-05-08T03:58:19.550Z,2601.00
2023-05-08T03:59:19.564Z,2618.00
2023-05-08T04:00:19.690Z,2616.00
2023-05-08T04:01:19.649Z,2627.00
2023-05-08T04:02:19.774Z,2614.00
2023-05-08T04:03:19.764Z,2614.00
2023-05-08T04:04:19.886Z,2597.00
2023-05-08T04:05:19.815Z,2601.00
2023-05-08T04:06:19.873Z,2596.00
2023-05-08T04:07:19.903Z,2592.00
2023-05-08T04:08:19.926Z,2578.00
2023-05-08T04:09:20.008Z,2587.00
2023-05-08T04:10:20.059Z,2595.00
2023-05-08T04:11:20.109Z,2604.00
2023-05-08T04:12:20.171Z,2600.00
2023-05-08T04:13:20.295Z,2578.00
2023-05-08T04:14:20.219Z,2583.00
2023-05-08T04:15:20.272Z,2569.00
2023-05-08T04:16:20.368Z,2577.00
2023-05-08T04:17:20.370Z,2557.00
2023-05-08T04:18:20.420Z,2575.00
2023-05-08T04:19:20.857Z,2558.00
2023-05-08T04:20:20.514Z,2549.00
2023-05-08T04:21:20.512Z,2553.00
2023-05-08T04:22:20.579Z,2535.00
2023-05-08T04:23:20.642Z,2529.00
2023-05-08T04:24:20.683Z,2517.00
2023-05-08T04:25:21.114Z,2525.00
2023-05-08T04:26:20.842Z,2510.00
2023-05-08T04:27:20.842Z,2525.00
2023-05-08T04:28:20.940Z,2522.00
2023-05-08T04:29:20.935Z,2522.00
2023-05-08T04:30:21.011Z,2509.00
2023-05-08T04:31:21.060Z,2510.00
2023-05-08T04:32:21.099Z,2498.00
2023-05-08T04:33:21.200Z,2500.00
2023-05-08T04:34:21.221Z,2522.00
2023-05-08T04:35:21.306Z,2509.00
2023-05-08T04:36:21.316Z,2528.00
2023-05-08T04:37:21.351Z,2537.00
2023-05-08T04:38:22.122Z,2521.00
2023-05-08T04:39:21.466Z,2502.00
2023-05-08T04:40:21.505Z,2523.00
2023-05-08T04:41:21.664Z,2490.00
2023-05-08T04:42:21.636Z,2498.00
2023-05-08T04:43:21.644Z,2479.00
2023-05-08T04:44:21.703Z,2477.00
2023-05-08T04:45:21.800Z,2460.00
2023-05-08T04:46:21.918Z,2469.00
2023-05-08T04:47:21.950Z,2425.00
2023-05-08T04:48:21.913Z,2417.00
2023-05-08T04:49:21.984Z,2406.00
2023-05-08T04:50:22.042Z,2375.00
2023-05-08T04:51:22.091Z,2395.00
2023-05-08T04:52:23.107Z,2402.00
2023-05-08T04:53:22.222Z,2412.00
2023-05-08T04:54:22.270Z,2434.00
2023-05-08T04:55:22.290Z,2451.00
2023-05-08T04:56:22.348Z,2446.00
2023-05-08T04:57:22.409Z,2469.00
2023-05-08T04:58:22.494Z,2486.00
2023-05-08T04:59:22.497Z,2499.00
2023-05-08T05:00:22.550Z,2527.00
2023-05-08T05:01:23.733Z,2515.00
2023-05-08T05:02:22.660Z,2544.00
2023-05-08T05:03:22.786Z,2545.00
2023-05-08T05:04:22.785Z,2535.00
2023-05-08T05:05:22.819Z,2532.00
2023-05-08T05:06:22.895Z,2551.00
2023-05-08T05:07:22.927Z,2539.00
2023-05-08T05:08:23.024Z,2544.00
2023-05-08T05:09:23.041Z,2505.00
2023-05-08T05:10:23.075Z,2503.00
2023-05-08T05:11:23.118Z,2510.00
2023-05-08T05:12:23.184Z,2517.00
2023-05-08T05:13:23.314Z,2520.00
2023-05-08T05:14:23.307Z,2531.00
2023-05-08T05:15:23.321Z,2528.00
2023-05-08T05:16:23.472Z,2529.00
2023-05-08T05:17:23.506Z,2528.00
2023-05-08T05:18:23.490Z,2550.00
2023-05-08T05:19:23.546Z,2569.00
2023-05-08T05:20:23.605Z,2556.00
2023-05-08T05:21:23.659Z,2556.00
2023-05-08T05:22:23.715Z,2548.00
2023-05-08T05:23:23.757Z,2557.00
2023-05-08T05:24:23.795Z,2548.00
2023-05-08T05:25:23.839Z,2539.00
2023-05-08T05:26:23.907Z,2550.00
2023-05-08T05:27:23.973Z,2553.00
2023-05-08T05:28:24.012Z,2534.00
2023-05-08T05:29:24.067Z,2521.00
2023-05-08T05:30:24.132Z,2548.00
2023-05-08T05:31:24.191Z,2504.00
2023-05-08T05:32:24.253Z,2500.00
2023-05-08T05:33:24.268Z,2526.00
2023-05-08T05:34:24.315Z,2517.00
2023-05-08T05:35:25.571Z,2512.00
2023-05-08T05:36:24.434Z,2500.00
2023-05-08T05:37:24.480Z,2506.00
2023-05-08T05:38:24.535Z,2506.00
2023-05-08T05:39:24.573Z,2567.00
2023-05-08T05:40:24.636Z,2556.00
2023-05-08T05:41:24.659Z,2596.00
2023-05-08T05:42:24.692Z,2633.00
2023-05-08T05:43:24.748Z,2660.00
2023-05-08T05:44:24.728Z,2697.00
2023-05-08T05:45:24.793Z,2715.00
2023-05-08T05:46:24.849Z,2767.00
2023-05-08T05:47:24.893Z,2750.00
2023-05-08T05:48:24.904Z,2726.00
2023-05-08T05:49:24.891Z,2804.00
2023-05-08T05:50:25.183Z,2832.00
2023-05-08T05:51:25.019Z,3068.00
2023-05-08T05:52:25.062Z,3150.00
2023-05-08T05:53:25.194Z,3088.00
2023-05-08T05:54:25.218Z,2994.00
2023-05-08T05:55:25.651Z,3068.00
2023-05-08T05:56:25.381Z,3221.00
2023-05-08T05:57:25.300Z,3217.00
2023-05-08T05:58:25.349Z,3162.00
2023-05-08T05:59:25.416Z,3210.00
2023-05-08T06:00:25.413Z,3332.00
2023-05-08T06:01:25.428Z,3340.00
2023-05-08T06:02:25.561Z,3373.00
2023-05-08T06:03:25.528Z,3377.00
2023-05-08T06:04:25.480Z,3450.00
2023-05-08T06:05:25.551Z,3464.00
2023-05-08T06:06:25.577Z,3498.00
2023-05-08T06:07:25.633Z,3536.00
2023-05-08T06:08:25.709Z,3585.00
2023-05-08T06:09:25.719Z,3620.00
2023-05-08T06:10:26.118Z,3639.00
2023-05-08T06:11:25.761Z,3677.00
2023-05-08T06:12:25.752Z,3729.00
2023-05-08T06:13:25.901Z,3769.00
2023-05-08T06:14:25.770Z,3781.00
2023-05-08T06:15:26.112Z,3805.00
2023-05-08T06:16:25.812Z,3825.00
2023-05-08T06:17:25.881Z,3835.00
2023-05-08T06:18:25.900Z,3890.00
2023-05-08T06:19:25.977Z,3907.00
2023-05-08T06:20:26.487Z,3947.00
2023-05-08T06:21:25.965Z,3945.00
2023-05-08T06:22:26.036Z,3953.00
2023-05-08T06:23:26.120Z,3980.00
2023-05-08T06:24:26.101Z,4023.00
2023-05-08T06:25:26.173Z,4071.00
2023-05-08T06:26:26.180Z,4091.00
2023-05-08T06:27:26.250Z,4106.00
2023-05-08T06:28:26.303Z,4120.00
2023-05-08T06:29:26.327Z,4096.00
2023-05-08T06:30:26.400Z,4114.00
2023-05-08T06:31:26.519Z,4145.00
2023-05-08T06:32:26.544Z,4148.00
2023-05-08T06:33:27.078Z,4149.00
2023-05-08T06:34:26.585Z,4168.00
2023-05-08T06:35:26.675Z,4148.00
2023-05-08T06:36:26.726Z,4154.00
2023-05-08T06:37:26.765Z,4167.00
2023-05-08T06:38:26.836Z,4179.00
2023-05-08T06:39:26.866Z,4153.00
2023-05-08T06:40:26.974Z,4175.00
2023-05-08T06:41:26.975Z,4162.00
2023-05-08T06:42:26.977Z,4156.00
2023-05-08T06:43:27.031Z,4171.00
2023-05-08T06:44:27.055Z,4187.00
2023-05-08T06:45:27.090Z,4226.00
2023-05-08T06:46:27.186Z,4219.00
2023-05-08T06:47:27.174Z,4213.00
2023-05-08T06:48:27.214Z,4188.00
2023-05-08T06:49:27.168Z,4046.00
2023-05-08T06:50:27.669Z,3808.00
2023-05-08T06:51:27.274Z,3729.00
2023-05-08T06:52:27.282Z,3680.00
2023-05-08T06:53:27.296Z,3720.00
2023-05-08T06:54:27.318Z,3699.00
2023-05-08T06:55:27.341Z,3850.00
2023-05-08T06:56:27.329Z,3892.00
2023-05-08T06:57:27.372Z,3909.00
2023-05-08T06:58:27.412Z,3936.00
2023-05-08T06:59:27.445Z,3907.00
2023-05-08T07:00:27.507Z,3916.00
2023-05-08T07:01:27.618Z,3939.00
2023-05-08T07:02:27.646Z,3949.00
2023-05-08T07:03:27.669Z,4031.00
2023-05-08T07:04:28.422Z,4016.00
2023-05-08T07:05:27.707Z,4005.00
2023-05-08T07:06:27.735Z,4010.00
2023-05-08T07:07:27.773Z,4025.00
2023-05-08T07:08:27.863Z,4018.00
2023-05-08T07:09:27.864Z,4006.00
2023-05-08T07:10:27.888Z,3996.00
2023-05-08T07:11:27.910Z,3992.00
2023-05-08T07:12:27.951Z,4021.00
2023-05-08T07:13:27.982Z,4012.00
2023-05-08T07:14:27.991Z,4065.00
2023-05-08T07:15:28.269Z,4069.00
2023-05-08T07:16:28.106Z,4064.00
2023-05-08T07:17:28.074Z,4023.00
2023-05-08T07:18:28.091Z,4066.00
2023-05-08T07:19:28.091Z,4073.00
2023-05-08T07:20:28.147Z,4080.00
2023-05-08T07:21:28.167Z,4074.00
2023-05-08T07:22:28.208Z,4067.00
2023-05-08T07:23:28.274Z,4102.00
2023-05-08T07:24:28.158Z,4138.00
2023-05-08T07:25:28.192Z,4094.00
2023-05-08T07:26:28.193Z,4113.00
2023-05-08T07:27:28.216Z,4118.00
2023-05-08T07:28:28.232Z,4107.00
2023-05-08T07:29:28.254Z,4117.00
2023-05-08T07:30:28.338Z,4109.00
2023-05-08T07:31:28.407Z,4130.00
2023-05-08T07:32:28.391Z,4114.00
2023-05-08T07:33:28.395Z,4120.00
2023-05-08T07:34:28.449Z,4116.00
2023-05-08T07:35:28.506Z,4104.00
2023-05-08T07:36:28.543Z,4092.00
2023-05-08T07:37:28.617Z,4097.00
2023-05-08T07:38:28.648Z,4103.00
2023-05-08T07:39:28.714Z,4117.00
2023-05-08T07:40:29.192Z,4125.00
2023-05-08T07:41:28.864Z,4067.00
2023-05-08T07:42:28.854Z,3997.00
2023-05-08T07:43:28.872Z,3943.00
2023-05-08T07:44:28.900Z,3920.00
2023-05-08T07:45:29.155Z,3917.00
2023-05-08T07:46:28.888Z,3878.00
2023-05-08T07:47:28.955Z,3819.00
2023-05-08T07:48:28.956Z,3753.00
2023-05-08T07:49:28.972Z,3589.00
2023-05-08T07:50:28.993Z,3490.00
2023-05-08T07:51:29.038Z,3391.00
2023-05-08T07:52:29.653Z,3341.00
2023-05-08T07:53:29.124Z,3264.00
2023-05-08T07:54:29.123Z,3238.00
2023-05-08T07:55:29.133Z,3248.00
2023-05-08T07:56:29.178Z,3308.00
2023-05-08T07:57:29.137Z,3349.00
2023-05-08T07:58:29.186Z,3366.00
2023-05-08T07:59:29.157Z,3424.00
2023-05-08T08:00:29.246Z,3473.00
2023-05-08T08:01:29.257Z,3516.00
2023-05-08T08:02:29.393Z,3529.00
2023-05-08T08:03:29.477Z,3528.00
2023-05-08T08:04:29.576Z,3547.00
2023-05-08T08:05:29.804Z,3533.00
2023-05-08T08:06:29.506Z,3499.00
2023-05-08T08:07:29.529Z,3507.00
2023-05-08T08:08:29.569Z,3522.00
2023-05-08T08:09:29.636Z,3487.00
2023-05-08T08:10:29.698Z,3530.00
2023-05-08T08:11:29.680Z,3557.00
2023-05-08T08:12:29.819Z,3576.00
2023-05-08T08:13:29.839Z,3569.00
2023-05-08T08:14:29.815Z,3578.00
2023-05-08T08:15:29.871Z,3564.00
2023-05-08T08:16:29.946Z,3537.00
2023-05-08T08:17:30.008Z,3550.00
2023-05-08T08:18:29.946Z,3557.00
2023-05-08T08:19:30.050Z,3558.00
2023-05-08T08:20:30.045Z,3563.00
2023-05-08T08:21:30.110Z,3568.00
2023-05-08T08:22:30.111Z,3561.00
2023-05-08T08:23:30.158Z,3558.00
2023-05-08T08:24:30.211Z,3556.00
2023-05-08T08:25:30.237Z,3529.00
2023-05-08T08:26:30.276Z,3542.00
2023-05-08T08:27:30.319Z,3537.00
2023-05-08T08:28:30.444Z,3546.00
2023-05-08T08:29:30.423Z,3543.00
2023-05-08T08:30:30.478Z,3531.00
2023-05-08T08:31:30.441Z,3543.00
2023-05-08T08:32:30.462Z,3542.00
2023-05-08T08:33:30.588Z,3535.00
2023-05-08T08:34:30.536Z,3530.00
2023-05-08T08:35:30.591Z,3459.00
2023-05-08T08:36:30.977Z,3468.00
2023-05-08T08:37:30.640Z,3429.00
2023-05-08T08:38:30.709Z,3268.00
2023-05-08T08:39:30.736Z,3197.00
2023-05-08T08:40:30.766Z,3056.00
2023-05-08T08:41:30.777Z,3051.00
2023-05-08T08:42:30.783Z,3009.00
2023-05-08T08:43:30.822Z,3060.00
2023-05-08T08:44:30.923Z,3143.00
2023-05-08T08:45:31.196Z,3177.00
2023-05-08T08:46:30.944Z,3297.00
2023-05-08T08:47:30.941Z,3372.00
2023-05-08T08:48:30.924Z,3357.00
2023-05-08T08:49:30.948Z,3366.00
2023-05-08T08:50:31.190Z,3385.00
2023-05-08T08:51:31.070Z,3428.00
2023-05-08T08:52:31.046Z,3439.00
2023-05-08T08:53:31.148Z,3464.00
2023-05-08T08:54:31.167Z,3441.00
2023-05-08T08:55:31.268Z,3473.00
2023-05-08T08:56:31.265Z,3413.00
2023-05-08T08:57:31.337Z,3448.00
2023-05-08T08:58:31.358Z,3431.00
2023-05-08T08:59:31.428Z,3376.00
2023-05-08T09:00:31.580Z,3317.00
2023-05-08T09:01:31.622Z,3276.00
2023-05-08T09:02:31.646Z,3245.00
2023-05-08T09:03:31.755Z,3196.00
2023-05-08T09:04:31.707Z,3102.00
2023-05-08T09:05:32.184Z,3011.00
2023-05-08T09:06:31.741Z,2969.00
2023-05-08T09:07:31.751Z,2967.00
2023-05-08T09:08:31.807Z,2982.00
2023-05-08T09:09:31.824Z,2975.00
2023-05-08T09:10:32.234Z,2954.00
2023-05-08T09:11:31.846Z,2919.00
2023-05-08T09:12:31.906Z,2914.00
2023-05-08T09:13:32.016Z,2900.00
2023-05-08T09:14:31.964Z,2872.00
2023-05-08T09:15:32.005Z,2883.00
2023-05-08T09:16:32.158Z,2863.00
2023-05-08T09:17:32.107Z,2838.00
2023-05-08T09:18:32.073Z,2812.00
2023-05-08T09:19:32.136Z,2790.00
2023-05-08T09:20:32.170Z,2795.00
2023-05-08T09:21:32.184Z,2791.00
2023-05-08T09:22:32.191Z,2817.00
2023-05-08T09:23:32.261Z,2836.00
2023-05-08T09:24:32.302Z,2840.00
2023-05-08T09:25:32.350Z,2863.00
2023-05-08T09:26:32.353Z,2908.00
2023-05-08T09:27:32.370Z,2916.00
2023-05-08T09:28:32.391Z,2929.00
2023-05-08T09:29:32.431Z,2906.00
2023-05-08T09:30:32.448Z,2912.00
2023-05-08T09:31:32.814Z,2893.00
2023-05-08T09:32:32.721Z,2904.00
2023-05-08T09:33:32.509Z,2928.00
2023-05-08T09:34:32.528Z,2920.00
2023-05-08T09:35:32.551Z,2909.00
2023-05-08T09:36:32.516Z,2972.00
2023-05-08T09:37:32.528Z,2958.00
2023-05-08T09:38:32.565Z,2915.00
2023-05-08T09:39:32.608Z,2878.00
2023-05-08T09:40:32.724Z,2854.00
2023-05-08T09:41:32.633Z,2866.00
2023-05-08T09:42:32.636Z,2878.00
2023-05-08T09:43:32.709Z,2900.00
2023-05-08T09:44:32.751Z,2953.00
2023-05-08T09:45:33.323Z,3205.00
2023-05-08T09:46:32.804Z,3039.00
2023-05-08T09:47:32.861Z,3037.00
2023-05-08T09:48:32.999Z,3061.00
2023-05-08T09:49:32.925Z,3075.00
2023-05-08T09:50:32.963Z,3073.00
2023-05-08T09:51:32.966Z,3086.00
2023-05-08T09:52:32.985Z,3074.00
2023-05-08T09:53:33.007Z,3083.00
2023-05-08T09:54:33.031Z,3106.00
2023-05-08T09:55:33.073Z,3094.00
2023-05-08T09:56:33.106Z,2927.00
2023-05-08T09:57:33.130Z,2760.00
2023-05-08T09:58:33.158Z,2606.00
2023-05-08T09:59:34.185Z,2546.00
2023-05-08T10:00:33.253Z,2539.00
2023-05-08T10:01:33.332Z,2482.00
2023-05-08T10:02:33.299Z,2432.00
2023-05-08T10:03:33.334Z,2427.00
2023-05-08T10:04:33.424Z,2378.00
2023-05-08T10:05:33.449Z,2329.00
2023-05-08T10:06:33.348Z,2292.00
2023-05-08T10:07:33.362Z,2328.00
2023-05-08T10:08:33.401Z,2265.00
2023-05-08T10:09:47.115Z,2226.00
2023-05-08T10:10:34.446Z,2229.00
2023-05-08T10:11:33.840Z,2249.00
2023-05-08T10:12:33.422Z,2306.00
2023-05-08T10:13:33.397Z,2402.00
2023-05-08T10:14:33.459Z,2546.00
2023-05-08T10:15:33.413Z,2594.00
2023-05-08T10:16:33.426Z,2660.00
2023-05-08T10:17:33.404Z,2708.00
2023-05-08T10:18:33.359Z,2740.00
2023-05-08T10:19:33.402Z,2767.00
2023-05-08T10:20:33.485Z,2802.00
2023-05-08T10:21:33.411Z,2810.00
2023-05-08T10:22:33.410Z,2836.00
2023-05-08T10:23:33.330Z,2870.00
2023-05-08T10:24:33.385Z,2920.00
2023-05-08T10:25:33.408Z,2943.00
2023-05-08T10:26:33.421Z,2958.00
2023-05-08T10:27:33.480Z,2981.00
2023-05-08T10:28:33.526Z,3015.00
2023-05-08T10:29:33.582Z,3026.00
2023-05-08T10:30:33.628Z,3051.00
2023-05-08T10:31:33.746Z,3093.00
2023-05-08T10:32:33.767Z,3124.00
2023-05-08T10:33:33.843Z,3151.00
2023-05-08T10:34:33.849Z,3162.00
2023-05-08T10:35:33.887Z,3182.00
2023-05-08T10:36:34.310Z,3212.00
2023-05-08T10:37:34.044Z,3247.00
2023-05-08T10:38:34.094Z,3248.00
2023-05-08T10:39:34.120Z,3304.00
2023-05-08T10:40:34.083Z,3290.00
2023-05-08T10:41:34.147Z,3259.00
2023-05-08T10:42:34.167Z,3301.00
2023-05-08T10:43:34.173Z,3338.00
2023-05-08T10:44:34.207Z,3375.00
2023-05-08T10:45:34.250Z,3377.00
2023-05-08T10:46:34.769Z,3359.00
2023-05-08T10:47:34.284Z,3383.00
2023-05-08T10:48:34.298Z,3409.00
2023-05-08T10:49:34.327Z,3437.00
2023-05-08T10:50:34.349Z,3447.00
2023-05-08T10:51:34.364Z,3476.00
2023-05-08T10:52:34.364Z,3506.00
2023-05-08T10:53:34.413Z,3561.00
2023-05-08T10:54:34.393Z,3569.00
2023-05-08T10:55:34.393Z,3597.00
2023-05-08T10:56:34.422Z,3604.00
2023-05-08T10:57:34.424Z,3614.00
2023-05-08T10:58:34.407Z,3646.00
2023-05-08T10:59:34.450Z,3670.00
2023-05-08T11:00:34.434Z,3677.00
2023-05-08T11:01:34.531Z,3683.00
2023-05-08T11:02:34.537Z,3717.00
2023-05-08T11:03:34.561Z,3744.00
2023-05-08T11:04:34.602Z,3748.00
2023-05-08T11:05:34.542Z,3779.00
2023-05-08T11:06:34.587Z,3790.00
2023-05-08T11:07:34.571Z,3788.00
2023-05-08T11:08:34.695Z,3780.00
2023-05-08T11:09:34.605Z,3799.00
2023-05-08T11:10:34.704Z,3808.00
2023-05-08T11:11:34.685Z,3833.00
2023-05-08T11:12:34.704Z,3833.00
2023-05-08T11:13:34.822Z,3843.00
2023-05-08T11:14:34.746Z,3855.00
2023-05-08T11:15:34.789Z,3827.00
2023-05-08T11:16:34.965Z,3820.00
2023-05-08T11:17:34.924Z,3819.00
2023-05-08T11:18:48.555Z,3822.00
2023-05-08T11:19:35.971Z,3823.00
2023-05-08T11:20:34.924Z,3829.00
2023-05-08T11:21:34.905Z,3831.00
2023-05-08T11:22:34.927Z,3846.00
2023-05-08T11:23:34.885Z,3867.00
2023-05-08T11:24:34.907Z,3887.00
2023-05-08T11:25:34.902Z,3898.00
2023-05-08T11:26:34.900Z,3909.00
2023-05-08T11:27:34.873Z,3916.00
2023-05-08T11:28:34.881Z,3942.00
2023-05-08T11:29:34.919Z,3938.00
2023-05-08T11:30:35.145Z,3934.00
2023-05-08T11:31:35.325Z,3929.00
2023-05-08T11:32:35.404Z,4034.00
2023-05-08T11:33:35.146Z,4015.00
2023-05-08T11:34:35.142Z,4019.00
2023-05-08T11:35:35.210Z,4014.00
2023-05-08T11:36:35.274Z,3996.00
2023-05-08T11:37:35.250Z,3994.00
2023-05-08T11:38:35.231Z,3990.00
2023-05-08T11:39:35.282Z,3986.00
2023-05-08T11:40:35.276Z,3971.00
2023-05-08T11:41:35.282Z,3956.00
2023-05-08T11:42:35.303Z,3945.00
2023-05-08T11:43:35.325Z,3932.00
2023-05-08T11:44:35.339Z,3905.00
2023-05-08T11:45:35.353Z,3903.00
2023-05-08T11:46:35.458Z,3876.00
2023-05-08T11:47:35.422Z,3853.00
2023-05-08T11:48:35.447Z,3834.00
2023-05-08T11:49:35.499Z,3826.00
2023-05-08T11:50:35.499Z,3820.00
2023-05-08T11:51:35.566Z,3803.00
2023-05-08T11:52:35.553Z,3765.00
2023-05-08T11:53:35.615Z,3751.00
2023-05-08T11:54:35.685Z,3722.00
2023-05-08T11:55:35.705Z,3684.00
2023-05-08T11:56:35.797Z,3674.00
2023-05-08T11:57:35.826Z,3638.00
2023-05-08T11:58:35.826Z,3589.00
2023-05-08T11:59:35.953Z,3566.00
2023-05-08T12:00:35.937Z,3552.00
2023-05-08T12:01:36.032Z,3522.00
2023-05-08T12:02:36.124Z,3469.00
2023-05-08T12:03:36.175Z,3443.00
2023-05-08T12:04:36.816Z,3421.00
2023-05-08T12:05:36.213Z,3391.00